LFST 221500Z AUTO 17013KT CAVOK 14/00 Q1026 TEMPO 20015G25KT

ElémentsDécodage
LFST Station météo située sur l'aérodrome de STRASBOURG Entzheim
221500Z émis le 22 du mois à 15h00 UTC
AUTO Bulletin édité par un automate
17013KT vent du 170°, 13 noeuds
CAVOK Ceiling And Visibility OK
- Visibilité de 10 Km ou plus
- Pas de nuage au-dessous de 1500m ou au-dessous de l'altitude minimale du secteur la plus élevée (si>1500m) et absence de CB
- pas de temps présent significatif
14/00 température 14°C, point de rosée 00°C
 soit une humidité relative de 38%
Q1026 la pression au niveau de la mer (QNH) est de 1026 hPa
TEMPO fluctuation temporaire prévue
20015G25KT vent du 200°, moyenne: 15 noeuds, avec rafales à 25 noeuds